createdAt,value
2024-02-08T00:04:20.052Z,97086.50
2024-02-08T00:09:22.290Z,97094.66
2024-02-08T00:14:25.602Z,97085.00
2024-02-08T00:19:27.802Z,97096.34
2024-02-08T00:24:31.978Z,97092.03
2024-02-08T00:29:34.260Z,97088.31
2024-02-08T00:34:36.767Z,97086.31
2024-02-08T00:39:45.028Z,97080.53
2024-02-08T00:44:47.006Z,97072.84
2024-02-08T00:49:49.580Z,97070.28
2024-02-08T00:54:52.283Z,97078.94
2024-02-08T00:59:54.200Z,97087.44
2024-02-08T01:04:57.019Z,97095.13
2024-02-08T01:10:00.375Z,97089.03
2024-02-08T01:15:03.946Z,97085.16
2024-02-08T01:20:08.349Z,97074.25
2024-02-08T01:25:10.617Z,97058.50
2024-02-08T01:30:15.145Z,97061.50
2024-02-08T01:35:23.780Z,97052.03
2024-02-08T01:40:27.671Z,97044.84
2024-02-08T01:45:43.219Z,97034.81
2024-02-08T01:50:59.884Z,97035.31
2024-02-08T01:56:03.941Z,97036.13
2024-02-08T02:01:09.399Z,97022.19
2024-02-08T02:06:15.957Z,97023.00
2024-02-08T02:11:31.133Z,97013.91
2024-02-08T02:16:33.486Z,97006.19
2024-02-08T02:21:36.205Z,97001.31
2024-02-08T02:26:38.713Z,96997.69
2024-02-08T02:31:40.886Z,96997.91
2024-02-08T02:36:46.420Z,96998.66
2024-02-08T02:41:49.056Z,96978.00
2024-02-08T02:46:51.101Z,96978.00
2024-02-08T02:51:53.503Z,96978.94
2024-02-08T02:56:58.137Z,96970.34
2024-02-08T03:02:00.404Z,96963.47
2024-02-08T03:07:03.627Z,96967.78
2024-02-08T03:12:11.410Z,96966.69
2024-02-08T03:17:13.989Z,96967.19
2024-02-08T03:22:19.576Z,96965.50
2024-02-08T03:27:23.211Z,96958.91
2024-02-08T03:32:25.252Z,96956.00
2024-02-08T03:37:27.669Z,96940.59
2024-02-08T03:42:29.702Z,96936.78
2024-02-08T03:47:34.170Z,96945.94
2024-02-08T03:52:38.726Z,96943.53
2024-02-08T03:57:41.317Z,96938.69
2024-02-08T04:02:45.103Z,96942.22
2024-02-08T04:08:01.225Z,96934.38
2024-02-08T04:13:22.592Z,96940.16
2024-02-08T04:18:43.187Z,96928.13
2024-02-08T04:24:04.589Z,96924.91
2024-02-08T04:29:25.216Z,96938.09
2024-02-08T04:34:45.885Z,96931.41
2024-02-08T04:40:06.753Z,96928.22
2024-02-08T04:45:27.452Z,96927.28
2024-02-08T04:50:48.415Z,96927.78
2024-02-08T04:55:50.724Z,96931.16
2024-02-08T05:00:53.308Z,96919.13
2024-02-08T05:05:55.914Z,96919.28
2024-02-08T05:10:58.101Z,96926.81
2024-02-08T05:16:01.654Z,96932.75
2024-02-08T05:21:07.269Z,96934.66
2024-02-08T05:26:13.420Z,96928.38
2024-02-08T05:31:19.163Z,96920.50
2024-02-08T05:36:21.661Z,96916.16
2024-02-08T05:41:23.844Z,96915.34
2024-02-08T05:46:28.961Z,96910.06
2024-02-08T05:51:35.382Z,96893.09
2024-02-08T05:56:41.240Z,96888.72
2024-02-08T06:01:48.766Z,96875.03
2024-02-08T06:07:00.366Z,96890.56
2024-02-08T06:12:10.988Z,96879.38
2024-02-08T06:17:13.520Z,96891.22
2024-02-08T06:22:22.084Z,96902.13
2024-02-08T06:27:27.458Z,96894.00
2024-02-08T06:32:29.557Z,96881.97
2024-02-08T06:37:33.557Z,96877.28
2024-02-08T06:42:40.449Z,96894.44
2024-02-08T06:48:05.723Z,96911.94
2024-02-08T06:53:26.877Z,96912.94
2024-02-08T06:58:47.390Z,96912.84
2024-02-08T07:04:08.249Z,96914.00
2024-02-08T07:09:29.056Z,96909.00
2024-02-08T07:14:49.456Z,96905.16
2024-02-08T07:20:09.895Z,96907.72
2024-02-08T07:25:31.579Z,96906.09
2024-02-08T07:30:52.830Z,96900.97
2024-02-08T07:36:14.869Z,96902.28
2024-02-08T07:41:22.553Z,96908.72
2024-02-08T07:46:32.147Z,96909.66
2024-02-08T07:51:35.630Z,96904.41
2024-02-08T07:56:48.325Z,96897.41
2024-02-08T08:01:51.441Z,96904.03
2024-02-08T08:07:02.379Z,96904.22
2024-02-08T08:12:06.936Z,96901.03
2024-02-08T08:17:32.520Z,96892.72
2024-02-08T08:22:35.079Z,96902.66
2024-02-08T08:27:52.548Z,96901.53
2024-02-08T08:33:42.035Z,96901.53
2024-02-08T08:39:39.131Z,96904.28
2024-02-08T08:44:51.074Z,96913.75
2024-02-08T08:49:53.152Z,96910.03
2024-02-08T08:55:18.877Z,96912.78
2024-02-08T09:00:33.924Z,96907.66
2024-02-08T09:05:38.286Z,96919.72
2024-02-08T09:10:44.490Z,96906.09
2024-02-08T09:15:57.813Z,96913.66
2024-02-08T09:21:00.745Z,96906.44
2024-02-08T09:26:06.197Z,96913.19
2024-02-08T09:31:14.820Z,96906.94
2024-02-08T09:36:17.295Z,96913.50
2024-02-08T09:41:27.124Z,96913.50
2024-02-08T09:46:32.530Z,96914.16
2024-02-08T09:51:36.907Z,96924.13
2024-02-08T09:56:40.902Z,96911.59
2024-02-08T10:01:46.737Z,96897.94
2024-02-08T10:06:57.814Z,96901.78
2024-02-08T10:12:08.739Z,96889.09
2024-02-08T10:17:42.971Z,96879.31
2024-02-08T10:22:58.552Z,96881.88
2024-02-08T10:28:25.055Z,96878.50
2024-02-08T10:33:37.908Z,96866.47
2024-02-08T10:44:24.321Z,96853.78
2024-02-08T10:49:27.572Z,96849.59
2024-02-08T11:01:54.416Z,96815.56
2024-02-08T11:13:39.529Z,96802.53
2024-02-08T11:18:49.755Z,96803.50
2024-02-08T11:23:58.575Z,96808.50
2024-02-08T11:30:06.433Z,96807.69
2024-02-08T11:35:22.417Z,96795.66
2024-02-08T11:40:31.167Z,96796.94
2024-02-08T11:45:37.712Z,96802.22
2024-02-08T11:50:41.260Z,96785.22
2024-02-08T11:55:48.820Z,96773.66
2024-02-08T12:00:51.919Z,96757.28
2024-02-08T12:06:02.589Z,96759.69
2024-02-08T12:11:05.077Z,96756.16
2024-02-08T12:16:07.916Z,96756.94
2024-02-08T12:21:19.289Z,96762.72
2024-02-08T12:26:40.372Z,96757.75
2024-02-08T12:31:47.124Z,96740.41
2024-02-08T12:36:49.453Z,96728.84
2024-02-08T12:41:55.734Z,96728.66
2024-02-08T12:46:58.197Z,96730.13
2024-02-08T12:52:04.588Z,96697.84
2024-02-08T12:57:11.823Z,96698.97
2024-02-08T13:02:20.420Z,96694.63
2024-02-08T13:07:27.144Z,96677.59
2024-02-08T13:13:25.575Z,96682.44
2024-02-08T13:18:31.581Z,96683.91
2024-02-08T13:23:42.567Z,96688.72
2024-02-08T13:28:44.746Z,96681.66
2024-02-08T13:33:47.049Z,96664.00
2024-02-08T13:38:51.040Z,96667.53
2024-02-08T13:43:53.285Z,96662.41
2024-02-08T13:48:55.687Z,96654.38
2024-02-08T13:53:57.802Z,96661.75
2024-02-08T13:59:02.072Z,96647.31
2024-02-08T14:04:07.744Z,96650.84
2024-02-08T14:09:30.124Z,96637.19
2024-02-08T14:14:41.782Z,96626.13
2024-02-08T14:19:46.811Z,96626.75
2024-02-08T14:24:52.509Z,96629.16
2024-02-08T14:29:54.611Z,96628.03
2024-02-08T14:40:44.764Z,96617.94
2024-02-08T14:45:46.765Z,96617.28
2024-02-08T14:50:54.460Z,96604.44
2024-02-08T14:55:56.549Z,96601.88
2024-02-08T15:01:09.039Z,96602.38
2024-02-08T15:06:31.504Z,96595.78
2024-02-08T15:11:51.455Z,96583.28
2024-02-08T15:16:53.494Z,96577.84
2024-02-08T15:21:55.928Z,96574.81
2024-02-08T15:27:07.187Z,96575.75
2024-02-08T15:32:19.422Z,96555.09
2024-02-08T15:37:29.594Z,96558.78
2024-02-08T15:42:37.172Z,96551.06
2024-02-08T15:47:57.026Z,96550.59
2024-02-08T15:53:10.886Z,96545.00
2024-02-08T15:58:27.776Z,96533.44
2024-02-08T16:03:30.219Z,96527.03
2024-02-08T16:08:36.908Z,96524.81
2024-02-08T16:13:54.655Z,96520.97
2024-02-08T16:19:15.728Z,96503.34
2024-02-08T16:24:20.804Z,96504.94
2024-02-08T16:29:35.873Z,96491.47
2024-02-08T16:34:52.201Z,96476.41
2024-02-08T16:40:09.213Z,96473.34
2024-02-08T16:45:19.330Z,96465.81
2024-02-08T16:50:36.142Z,96464.22
2024-02-08T16:55:39.128Z,96475.63
2024-02-08T17:00:49.594Z,96466.00
2024-02-08T17:05:55.546Z,96461.66
2024-02-08T17:11:03.036Z,96465.81
2024-02-08T17:16:25.684Z,96475.13
2024-02-08T17:21:46.499Z,96452.84
2024-02-08T17:27:00.971Z,96470.78
2024-02-08T17:32:14.363Z,96441.44
2024-02-08T17:37:19.660Z,96442.06
2024-02-08T17:42:22.042Z,96451.69
2024-02-08T17:47:30.149Z,96448.34
2024-02-08T17:52:39.158Z,96432.31
2024-02-08T17:57:43.457Z,96444.97
2024-02-08T18:02:46.012Z,96436.63
2024-02-08T18:07:48.613Z,96427.84
2024-02-08T18:12:56.729Z,96427.03
2024-02-08T18:18:06.361Z,96404.09
2024-02-08T18:23:08.493Z,96402.84
2024-02-08T18:28:11.181Z,96386.66
2024-02-08T18:33:16.861Z,96383.13
2024-02-08T18:38:24.684Z,96363.72
2024-02-08T18:43:28.418Z,96354.91
2024-02-08T18:48:35.656Z,96377.19
2024-02-08T18:53:42.303Z,96357.78
2024-02-08T18:58:44.307Z,96381.84
2024-02-08T19:03:47.979Z,96364.66
2024-02-08T19:08:54.040Z,96363.84
2024-02-08T19:13:58.351Z,96365.47
2024-02-08T19:19:02.730Z,96350.06
2024-02-08T19:24:08.722Z,96344.00
2024-02-08T19:29:16.900Z,96343.66
2024-02-08T19:34:22.375Z,96340.13
2024-02-08T19:39:38.133Z,96334.19
2024-02-08T19:44:43.872Z,96323.16
2024-02-08T19:49:47.877Z,96315.44
2024-02-08T19:54:51.561Z,96313.81
2024-02-08T19:59:55.250Z,96308.69
2024-02-08T20:05:02.870Z,96296.03
2024-02-08T20:10:13.735Z,96296.66
2024-02-08T20:15:22.316Z,96300.97
2024-02-08T20:20:24.759Z,96289.75
2024-02-08T20:25:35.210Z,96279.94
2024-02-08T20:30:40.050Z,96274.81
2024-02-08T20:35:43.663Z,96269.22
2024-02-08T20:40:47.703Z,96262.03
2024-02-08T20:45:56.012Z,96250.97
2024-02-08T20:51:00.839Z,96243.09
2024-02-08T20:56:05.134Z,96243.09
2024-02-08T21:01:12.331Z,96236.56
2024-02-08T21:06:14.807Z,96237.34
2024-02-08T21:11:19.008Z,96227.09
2024-02-08T21:16:22.953Z,96227.88
2024-02-08T21:21:25.049Z,96224.34
2024-02-08T21:26:27.958Z,96221.44
2024-02-08T21:31:31.161Z,96224.63
2024-02-08T21:36:37.110Z,96230.56
2024-02-08T21:41:42.979Z,96215.28
2024-02-08T21:46:45.062Z,96206.28
2024-02-08T21:51:48.154Z,96202.06
2024-02-08T21:56:50.108Z,96211.97
2024-02-08T22:01:54.691Z,96201.72
2024-02-08T22:06:57.908Z,96189.50
2024-02-08T22:12:00.750Z,96190.75
2024-02-08T22:17:10.040Z,96195.09
2024-02-08T22:22:15.084Z,96189.16
2024-02-08T22:27:19.741Z,96180.16
2024-02-08T22:32:21.758Z,96182.53
2024-02-08T22:37:23.725Z,96182.53
2024-02-08T22:42:25.656Z,96175.97
2024-02-08T22:47:28.757Z,96179.69
2024-02-08T22:52:31.992Z,96180.66
2024-02-08T22:57:37.276Z,96175.34
2024-02-08T23:02:39.241Z,96172.63
2024-02-08T23:07:45.636Z,96172.28
2024-02-08T23:12:49.218Z,96166.00
2024-02-08T23:17:58.787Z,96162.09
2024-02-08T23:23:03.487Z,96160.50
2024-02-08T23:28:07.990Z,96150.88
2024-02-08T23:33:14.059Z,96147.50
2024-02-08T23:38:20.447Z,96143.16
2024-02-08T23:43:23.111Z,96143.97
2024-02-08T23:48:27.526Z,96144.75
2024-02-08T23:53:32.786Z,96138.47
2024-02-08T23:58:34.883Z,96133.00
